Time;durP1;ratioP1;P1;durP2;ratioP2;P2;SDS_P1;SDS_P2;PMS_P1;PMS_P2;Temp;Humidity;BMP_temperature;BMP_pressure;BME280_temperature;BME280_humidity;BME280_pressure;Samples;Min_cycle;Max_cycle;Signal;HPM_P1;HPM_P2
2021/05/17 00:00:49;;;;;;;7.23;6.53;;;;;21.20;98970.00;;;;2074342;28;20218;-53
2021/05/17 00:01:51;;;;;;;8.20;6.23;;;;;21.20;98968.00;;;;2075340;28;20346;-53
2021/05/17 00:02:51;;;;;;;6.40;5.80;;;;;21.10;98968.00;;;;2074315;28;20214;-53
2021/05/17 00:03:52;;;;;;;6.37;5.70;;;;;21.10;98966.00;;;;2070992;28;20215;-53
2021/05/17 00:04:52;;;;;;;6.90;6.20;;;;;21.10;98967.00;;;;2067686;28;20226;-52
2021/05/17 00:05:53;;;;;;;5.63;5.13;;;;;21.10;98971.00;;;;2073581;28;20297;-53
2021/05/17 00:06:53;;;;;;;6.20;5.60;;;;;21.10;98968.00;;;;2072127;28;20214;-52
2021/05/17 00:07:54;;;;;;;6.77;6.13;;;;;21.10;98968.00;;;;2070215;28;20242;-52
2021/05/17 00:08:54;;;;;;;7.30;5.97;;;;;21.10;98970.00;;;;2070337;28;20226;-52
2021/05/17 00:09:54;;;;;;;7.00;6.10;;;;;21.10;98975.00;;;;2070508;28;20210;-53
2021/05/17 00:10:55;;;;;;;5.60;5.00;;;;;21.10;98969.00;;;;2074575;28;20250;-53
2021/05/17 00:11:56;;;;;;;5.83;5.27;;;;;21.10;98980.00;;;;2072343;28;20222;-53
2021/05/17 00:12:56;;;;;;;7.13;5.83;;;;;21.10;98970.00;;;;2073671;28;20222;-52
2021/05/17 00:13:56;;;;;;;5.37;4.87;;;;;21.10;98972.00;;;;2065621;28;20272;-53
2021/05/17 00:14:57;;;;;;;5.80;5.20;;;;;21.10;98971.00;;;;2077977;28;20221;-52
2021/05/17 00:15:57;;;;;;;5.83;5.23;;;;;21.10;98967.00;;;;2078391;28;20214;-53
2021/05/17 00:16:58;;;;;;;5.87;5.10;;;;;21.10;98968.00;;;;2072505;28;20691;-53
2021/05/17 00:17:58;;;;;;;5.80;5.30;;;;;21.10;98969.00;;;;2076481;28;20241;-52
2021/05/17 00:18:58;;;;;;;5.33;4.83;;;;;21.10;98969.00;;;;2075949;28;20227;-52
2021/05/17 00:20:02;;;;;;;5.67;5.07;;;;;21.10;98964.00;;;;2068454;28;20695;-53
2021/05/17 00:21:02;;;;;;;5.60;4.65;;;;;21.10;98962.00;;;;2062562;28;20211;-52
2021/05/17 00:22:03;;;;;;;4.77;4.37;;;;;21.10;98965.00;;;;2068844;28;20218;-57
2021/05/17 00:23:03;;;;;;;6.90;5.63;;;;;21.10;98957.00;;;;2070540;28;20305;-54
2021/05/17 00:24:05;;;;;;;5.33;4.83;;;;;21.10;98968.00;;;;2074322;28;20223;-54
2021/05/17 00:25:05;;;;;;;5.85;4.78;;;;;21.10;98967.00;;;;2078339;28;20515;-53
2021/05/17 00:26:06;;;;;;;4.93;4.43;;;;;21.10;98971.00;;;;2078376;28;20725;-52
2021/05/17 00:27:07;;;;;;;5.43;4.93;;;;;21.10;98968.00;;;;2074935;28;20466;-53
2021/05/17 00:28:07;;;;;;;5.40;4.90;;;;;21.10;98972.00;;;;2072591;28;20233;-52
2021/05/17 00:29:09;;;;;;;6.40;4.63;;;;;21.10;98970.00;;;;2074539;28;20214;-52
2021/05/17 00:30:10;;;;;;;5.80;4.78;;;;;21.10;98964.00;;;;2077849;28;20301;-53
2021/05/17 00:31:10;;;;;;;4.80;4.30;;;;;21.10;98967.00;;;;2078938;28;20214;-53
2021/05/17 00:32:11;;;;;;;4.60;4.10;;;;;21.10;98968.00;;;;2074984;28;20455;-53
2021/05/17 00:33:12;;;;;;;4.97;4.20;;;;;21.10;98968.00;;;;2074778;28;20207;-53
2021/05/17 00:34:12;;;;;;;4.63;4.00;;;;;21.10;98972.00;;;;2074760;28;20451;-53
2021/05/17 00:35:13;;;;;;;4.40;4.00;;;;;21.10;98980.00;;;;2078047;28;20213;-52
2021/05/17 00:36:14;;;;;;;4.50;3.97;;;;;21.10;98970.00;;;;2070483;28;20256;-53
2021/05/17 00:37:15;;;;;;;4.10;3.70;;;;;21.10;98977.00;;;;2062190;28;20234;-53
2021/05/17 00:38:17;;;;;;;3.93;3.63;;;;;21.10;98978.00;;;;2068244;28;20688;-53
2021/05/17 00:39:17;;;;;;;3.85;3.47;;;;;21.00;98977.00;;;;2078659;28;20231;-53
2021/05/17 00:40:19;;;;;;;4.30;3.90;;;;;21.10;98972.00;;;;2074513;28;20214;-53
2021/05/17 00:41:19;;;;;;;4.45;3.72;;;;;21.10;98967.00;;;;2074763;28;20298;-53
2021/05/17 00:42:20;;;;;;;4.33;3.70;;;;;21.10;98979.00;;;;2078798;28;20586;-52
2021/05/17 00:43:26;;;;;;;4.30;3.90;;;;;21.00;98967.00;;;;2070664;28;20215;-52
2021/05/17 00:44:27;;;;;;;5.30;3.40;;;;;21.00;98971.00;;;;2071414;28;20296;-53
2021/05/17 00:45:27;;;;;;;4.13;3.72;;;;;21.00;98982.00;;;;2072425;28;20261;-53
2021/05/17 00:46:28;;;;;;;3.30;3.00;;;;;21.00;98977.00;;;;2071756;28;20714;-53
2021/05/17 00:47:28;;;;;;;4.50;3.80;;;;;21.00;98977.00;;;;2075340;28;20336;-53
2021/05/17 00:48:28;;;;;;;3.40;3.10;;;;;21.00;98974.00;;;;2065346;28;20214;-53
2021/05/17 00:49:29;;;;;;;4.50;3.20;;;;;21.00;98974.00;;;;2072616;28;20210;-53
2021/05/17 00:50:29;;;;;;;3.40;3.10;;;;;21.10;98978.00;;;;2073277;28;20210;-53
2021/05/17 00:51:32;;;;;;;3.90;3.57;;;;;20.90;98975.00;;;;2075800;28;20210;-53
2021/05/17 00:52:32;;;;;;;3.65;3.10;;;;;21.00;98969.00;;;;2070948;28;20212;-52
2021/05/17 00:53:33;;;;;;;4.27;3.43;;;;;21.00;98971.00;;;;2068422;28;20294;-53
2021/05/17 00:54:34;;;;;;;3.55;3.25;;;;;21.00;98974.00;;;;2066352;28;20441;-53
2021/05/17 00:55:34;;;;;;;3.53;3.03;;;;;21.00;98977.00;;;;2078325;28;20226;-53
2021/05/17 00:56:35;;;;;;;3.87;3.50;;;;;21.00;98973.00;;;;2072343;28;20239;-52
2021/05/17 00:57:35;;;;;;;3.53;3.23;;;;;21.00;98978.00;;;;2076221;28;20644;-52
2021/05/17 00:58:36;;;;;;;3.80;3.10;;;;;21.00;98978.00;;;;2069569;28;20218;-53
2021/05/17 00:59:37;;;;;;;3.67;2.93;;;;;21.00;98977.00;;;;2077238;28;20225;-53
2021/05/17 01:00:37;;;;;;;3.30;2.80;;;;;21.00;98979.00;;;;2071073;28;20461;-52
2021/05/17 01:01:38;;;;;;;3.87;3.13;;;;;21.00;98978.00;;;;2073257;28;20222;-53
2021/05/17 01:02:38;;;;;;;2.60;2.40;;;;;20.90;98978.00;;;;2070117;28;20545;-53
2021/05/17 01:03:38;;;;;;;4.07;3.53;;;;;21.00;98987.00;;;;2069442;28;20215;-52
2021/05/17 01:04:39;;;;;;;3.27;2.97;;;;;21.00;98979.00;;;;2061174;28;20723;-53
2021/05/17 01:05:39;;;;;;;2.80;2.43;;;;;21.00;98982.00;;;;2071408;28;20223;-53
2021/05/17 01:06:40;;;;;;;2.90;2.70;;;;;21.00;98987.00;;;;2075803;28;20214;-52
2021/05/17 01:07:47;;;;;;;2.90;2.40;;;;;21.00;98981.00;;;;2079754;28;20650;-58
2021/05/17 01:08:58;;;;;;;3.78;2.90;;;;;21.00;98981.00;;;;2079786;28;20475;-53
2021/05/17 01:09:59;;;;;;;3.30;3.00;;;;;21.00;98983.00;;;;2072373;28;20233;-52
2021/05/17 01:11:03;;;;;;;3.03;2.73;;;;;21.00;98990.00;;;;2073348;28;20202;-52
2021/05/17 01:12:04;;;;;;;3.10;2.50;;;;;21.00;98988.00;;;;2075323;28;20210;-53
2021/05/17 01:13:04;;;;;;;3.23;2.80;;;;;21.00;98983.00;;;;2077277;28;20252;-53
2021/05/17 01:14:06;;;;;;;4.07;2.93;;;;;21.00;98984.00;;;;2071786;28;20455;-53
2021/05/17 01:15:07;;;;;;;2.65;2.40;;;;;21.00;98990.00;;;;2079804;28;20218;-52
2021/05/17 01:16:07;;;;;;;3.00;2.70;;;;;21.00;98981.00;;;;2075974;28;20262;-52
2021/05/17 01:17:08;;;;;;;5.00;2.53;;;;;21.00;98975.00;;;;2067996;28;20459;-53
2021/05/17 01:18:08;;;;;;;2.50;2.30;;;;;21.00;98991.00;;;;2066977;28;20280;-53
2021/05/17 01:19:10;;;;;;;3.20;2.37;;;;;21.00;98990.00;;;;2063453;28;20317;-53
2021/05/17 01:20:12;;;;;;;2.90;2.50;;;;;21.00;98983.00;;;;2076103;28;20217;-52
2021/05/17 01:21:16;;;;;;;2.75;2.53;;;;;21.00;98986.00;;;;2073651;28;20290;-53
2021/05/17 01:22:22;;;;;;;2.50;2.30;;;;;21.00;98990.00;;;;2077398;28;20213;-53
2021/05/17 01:24:23;;;;;;;4.23;2.50;;;;;21.00;98989.00;;;;2070925;28;20214;-52
2021/05/17 01:25:25;;;;;;;2.83;2.30;;;;;21.00;98990.00;;;;2071985;28;20222;-53
2021/05/17 01:26:28;;;;;;;2.67;2.33;;;;;21.00;98987.00;;;;2071569;28;20710;-53
2021/05/17 01:27:28;;;;;;;3.70;2.13;;;;;20.90;98989.00;;;;2073368;28;20214;-53
2021/05/17 01:28:30;;;;;;;3.57;2.80;;;;;20.90;98985.00;;;;2070919;28;20951;-53
2021/05/17 01:29:31;;;;;;;2.85;1.83;;;;;21.00;98989.00;;;;2064854;28;20726;-52
2021/05/17 01:30:31;;;;;;;2.43;2.23;;;;;21.00;98986.00;;;;2077882;28;20313;-53
2021/05/17 01:31:32;;;;;;;2.50;2.27;;;;;21.00;98987.00;;;;2070079;28;20218;-52
2021/05/17 01:32:32;;;;;;;2.23;1.90;;;;;21.00;98989.00;;;;2071145;28;20223;-52
2021/05/17 01:33:35;;;;;;;2.93;2.27;;;;;20.90;98994.00;;;;2071396;28;20464;-53
2021/05/17 01:34:38;;;;;;;2.40;1.95;;;;;20.90;98988.00;;;;2075784;28;20219;-53
2021/05/17 01:35:40;;;;;;;2.35;1.92;;;;;20.90;98991.00;;;;2079651;28;20662;-53
2021/05/17 01:36:41;;;;;;;2.00;1.85;;;;;21.00;98997.00;;;;2075060;28;20679;-53
2021/05/17 01:37:41;;;;;;;3.27;2.43;;;;;21.00;98991.00;;;;2062328;28;20220;-53
2021/05/17 01:38:46;;;;;;;3.27;2.13;;;;;21.00;98984.00;;;;2071448;28;20212;-53
2021/05/17 01:39:46;;;;;;;2.67;2.10;;;;;20.90;98985.00;;;;2072794;28;20688;-53
2021/05/17 01:40:47;;;;;;;2.17;1.97;;;;;21.00;98997.00;;;;2071600;28;20218;-57
2021/05/17 01:41:47;;;;;;;2.50;2.13;;;;;21.00;98995.00;;;;2078392;28;20805;-57
2021/05/17 01:42:48;;;;;;;2.57;1.90;;;;;20.90;98989.00;;;;2078455;28;20297;-56
2021/05/17 01:43:54;;;;;;;2.50;1.63;;;;;20.90;98990.00;;;;2075693;28;20696;-56
2021/05/17 01:44:54;;;;;;;1.92;1.73;;;;;20.90;98985.00;;;;2076094;28;20210;-52
2021/05/17 01:45:55;;;;;;;2.23;1.80;;;;;20.90;98994.00;;;;2076088;28;20234;-53
2021/05/17 01:46:59;;;;;;;2.03;1.83;;;;;20.90;98993.00;;;;2063270;28;20350;-53
2021/05/17 01:47:59;;;;;;;2.80;1.77;;;;;20.90;98989.00;;;;2067336;28;20223;-53
2021/05/17 01:48:59;;;;;;;2.20;1.70;;;;;20.90;98997.00;;;;2079940;28;20206;-52
2021/05/17 01:50:00;;;;;;;1.97;1.73;;;;;20.90;98989.00;;;;2076428;28;20683;-53
2021/05/17 01:51:00;;;;;;;2.50;1.80;;;;;20.90;98992.00;;;;2071373;28;20247;-53
2021/05/17 01:52:01;;;;;;;2.20;1.60;;;;;20.90;98995.00;;;;2070448;28;20266;-53
2021/05/17 01:53:01;;;;;;;2.37;2.17;;;;;20.90;98989.00;;;;2065926;28;20799;-53
2021/05/17 01:54:02;;;;;;;3.13;1.83;;;;;20.90;98994.00;;;;2068349;28;20206;-53
2021/05/17 01:55:04;;;;;;;2.23;1.70;;;;;20.90;98992.00;;;;2078099;28;20208;-52
2021/05/17 01:56:05;;;;;;;1.95;1.50;;;;;20.90;98999.00;;;;2074564;28;20587;-53
2021/05/17 01:57:06;;;;;;;2.90;1.75;;;;;20.90;98994.00;;;;2078721;28;20213;-53
2021/05/17 01:58:20;;;;;;;2.70;2.00;;;;;20.90;98999.00;;;;2075440;28;20582;-52
2021/05/17 01:59:30;;;;;;;2.13;1.73;;;;;20.90;98996.00;;;;2074980;28;20568;-55
2021/05/17 02:00:30;;;;;;;1.92;1.75;;;;;20.90;98998.00;;;;2076214;28;20222;-53
2021/05/17 02:01:31;;;;;;;2.10;1.90;;;;;20.90;99002.00;;;;2074968;28;20238;-53
2021/05/17 02:02:31;;;;;;;3.43;1.87;;;;;20.90;98997.00;;;;2071826;28;20222;-53
2021/05/17 02:03:36;;;;;;;2.60;1.73;;;;;20.90;98995.00;;;;2066864;28;20215;-53
2021/05/17 02:04:37;;;;;;;2.03;1.80;;;;;20.90;98999.00;;;;2066568;28;20541;-52
2021/05/17 02:05:37;;;;;;;2.55;2.10;;;;;20.90;98992.00;;;;2077704;28;20256;-52
2021/05/17 02:06:38;;;;;;;1.90;1.53;;;;;20.90;98998.00;;;;2075285;28;20213;-52
2021/05/17 02:07:38;;;;;;;2.80;1.70;;;;;20.90;98995.00;;;;2077273;28;20218;-53
2021/05/17 02:08:43;;;;;;;4.40;1.60;;;;;20.90;99000.00;;;;2075123;28;20215;-53
2021/05/17 02:09:43;;;;;;;1.90;1.52;;;;;20.90;98995.00;;;;2074785;28;20230;-53
2021/05/17 02:10:45;;;;;;;2.23;1.73;;;;;20.90;98996.00;;;;2078164;28;20629;-53
2021/05/17 02:11:45;;;;;;;1.67;1.55;;;;;20.90;98996.00;;;;2076818;28;20218;-52
2021/05/17 02:12:45;;;;;;;2.60;1.50;;;;;20.90;98992.00;;;;2075800;28;20816;-53
2021/05/17 02:13:46;;;;;;;1.60;1.50;;;;;20.90;98995.00;;;;2077923;28;20228;-52
2021/05/17 02:14:47;;;;;;;1.67;1.30;;;;;20.90;98992.00;;;;2070778;28;20214;-53
2021/05/17 02:15:48;;;;;;;1.55;1.45;;;;;20.90;98998.00;;;;2062924;28;20216;-52
2021/05/17 02:16:51;;;;;;;1.67;1.25;;;;;20.90;99002.00;;;;2072735;28;20297;-53
2021/05/17 02:18:08;;;;;;;2.17;1.40;;;;;20.90;99003.00;;;;2076226;28;20207;-52
2021/05/17 02:19:09;;;;;;;1.52;1.35;;;;;20.90;98988.00;;;;2076590;28;20312;-52
2021/05/17 02:20:15;;;;;;;1.30;1.20;;;;;20.90;99002.00;;;;2073651;28;20207;-52
2021/05/17 02:21:16;;;;;;;1.48;1.38;;;;;20.90;98992.00;;;;2077335;28;20260;-52
2021/05/17 02:22:18;;;;;;;2.10;1.50;;;;;20.90;98998.00;;;;2069528;28;20222;-53
2021/05/17 02:23:18;;;;;;;1.63;1.30;;;;;20.90;98993.00;;;;2081632;28;20222;-52
2021/05/17 02:24:19;;;;;;;1.60;1.50;;;;;20.90;98997.00;;;;2076144;28;20222;-53
2021/05/17 02:25:20;;;;;;;2.10;1.60;;;;;20.90;99001.00;;;;2079250;28;20690;-52
2021/05/17 02:26:20;;;;;;;1.63;1.47;;;;;20.90;98991.00;;;;2075642;28;20744;-52
2021/05/17 02:27:20;;;;;;;1.70;1.60;;;;;20.90;98992.00;;;;2075153;28;20269;-53
2021/05/17 02:28:21;;;;;;;1.53;1.30;;;;;20.90;98994.00;;;;2070845;28;20293;-52
2021/05/17 02:29:21;;;;;;;1.70;1.30;;;;;20.90;98987.00;;;;2073485;28;20227;-53
2021/05/17 02:30:22;;;;;;;3.43;1.70;;;;;20.90;98989.00;;;;2074682;28;20297;-53
2021/05/17 02:31:23;;;;;;;4.38;1.70;;;;;20.90;98994.00;;;;2078221;28;20214;-53
2021/05/17 02:32:24;;;;;;;1.50;1.40;;;;;20.90;98990.00;;;;2078691;28;20215;-53
2021/05/17 02:33:24;;;;;;;1.50;1.40;;;;;20.80;98988.00;;;;2078812;28;20214;-53
2021/05/17 02:34:25;;;;;;;1.40;1.10;;;;;20.90;98995.00;;;;2073950;28;20214;-53
2021/05/17 02:35:25;;;;;;;1.30;1.10;;;;;20.80;98994.00;;;;2075109;28;20368;-53
2021/05/17 02:36:26;;;;;;;2.50;1.50;;;;;20.90;98995.00;;;;2075944;28;20218;-52
2021/05/17 02:37:27;;;;;;;2.70;1.30;;;;;20.90;98992.00;;;;2078351;28;20277;-53
2021/05/17 02:38:27;;;;;;;1.57;1.40;;;;;20.80;98996.00;;;;2073517;28;20603;-53
2021/05/17 02:39:28;;;;;;;1.30;1.20;;;;;20.90;98992.00;;;;2077493;28;20237;-52
2021/05/17 02:40:28;;;;;;;1.93;1.40;;;;;20.80;98990.00;;;;2074841;28;20219;-53
2021/05/17 02:41:29;;;;;;;1.43;1.30;;;;;20.90;98989.00;;;;2075566;28;20230;-54
2021/05/17 02:42:29;;;;;;;1.40;1.17;;;;;20.80;98997.00;;;;2063931;28;20541;-54
2021/05/17 02:43:30;;;;;;;1.47;1.10;;;;;20.80;98984.00;;;;2065964;28;20591;-52
2021/05/17 02:44:30;;;;;;;1.77;1.30;;;;;20.80;98989.00;;;;2074812;28;20276;-54
2021/05/17 02:45:31;;;;;;;1.53;1.23;;;;;20.80;98997.00;;;;2075215;28;20587;-53
2021/05/17 02:46:31;;;;;;;1.83;1.27;;;;;20.80;98999.00;;;;2071704;28;20293;-53
2021/05/17 02:47:35;;;;;;;3.70;1.40;;;;;20.80;98995.00;;;;2076205;28;20216;-52
2021/05/17 02:48:41;;;;;;;1.60;1.27;;;;;20.80;98998.00;;;;2073291;28;20214;-52
2021/05/17 02:49:42;;;;;;;1.50;1.33;;;;;20.80;98997.00;;;;2071642;28;20302;-52
2021/05/17 02:50:44;;;;;;;1.70;1.50;;;;;20.80;98989.00;;;;2072201;28;20222;-52
2021/05/17 02:51:45;;;;;;;1.50;1.20;;;;;20.80;98991.00;;;;2074214;28;20221;-53
2021/05/17 02:52:45;;;;;;;1.33;1.17;;;;;20.80;98989.00;;;;2074942;28;20215;-53
2021/05/17 02:53:56;;;;;;;1.40;1.30;;;;;20.80;98993.00;;;;2078857;28;20237;-52
2021/05/17 02:55:16;;;;;;;2.13;1.20;;;;;20.80;98996.00;;;;2077463;28;20214;-52
2021/05/17 02:56:17;;;;;;;1.38;1.10;;;;;20.80;99000.00;;;;2067574;28;20216;-52
2021/05/17 02:57:18;;;;;;;2.07;1.03;;;;;20.80;98989.00;;;;2066241;28;20301;-52
2021/05/17 02:58:18;;;;;;;1.10;0.90;;;;;20.80;98992.00;;;;2062370;28;20447;-53
2021/05/17 02:59:23;;;;;;;1.80;1.00;;;;;20.80;98995.00;;;;2067352;28;20222;-53
2021/05/17 03:00:24;;;;;;;1.40;1.00;;;;;20.80;98999.00;;;;2071058;28;20215;-52
2021/05/17 03:01:28;;;;;;;1.33;1.10;;;;;20.80;98989.00;;;;2069543;28;20215;-53
2021/05/17 03:02:30;;;;;;;1.90;1.27;;;;;20.80;98993.00;;;;2061473;28;20221;-52
2021/05/17 03:03:30;;;;;;;2.03;1.30;;;;;20.80;98993.00;;;;2075093;28;20210;-53
2021/05/17 03:04:30;;;;;;;2.17;1.30;;;;;20.80;98994.00;;;;2069789;28;20234;-53
2021/05/17 03:05:36;;;;;;;0.97;0.80;;;;;20.80;98992.00;;;;2070309;28;20222;-53
2021/05/17 03:06:37;;;;;;;1.88;1.10;;;;;20.80;98998.00;;;;2074139;28;20223;-52
2021/05/17 03:07:38;;;;;;;2.40;1.25;;;;;20.80;98990.00;;;;2071446;28;20265;-52
2021/05/17 03:08:52;;;;;;;2.07;1.17;;;;;20.80;98996.00;;;;2074135;28;20222;-53
2021/05/17 03:09:53;;;;;;;1.20;1.10;;;;;20.80;98997.00;;;;2072480;28;20218;-52
2021/05/17 03:10:53;;;;;;;1.97;1.17;;;;;20.80;98997.00;;;;2077516;28;20221;-52
2021/05/17 03:11:53;;;;;;;1.50;1.00;;;;;20.80;99000.00;;;;2066173;28;20292;-52
2021/05/17 03:12:56;;;;;;;1.27;0.93;;;;;20.80;99003.00;;;;2073057;28;20222;-52
2021/05/17 03:13:56;;;;;;;1.73;1.20;;;;;20.80;99001.00;;;;2071017;28;20627;-52
2021/05/17 03:14:57;;;;;;;0.93;0.90;;;;;20.80;99003.00;;;;2062531;28;20266;-52
2021/05/17 03:15:57;;;;;;;1.20;1.00;;;;;20.80;99008.00;;;;2070515;28;20298;-52
2021/05/17 03:16:58;;;;;;;1.30;1.17;;;;;20.80;99000.00;;;;2075145;28;20687;-52
2021/05/17 03:17:59;;;;;;;2.35;1.00;;;;;20.80;99003.00;;;;2079095;28;20221;-52
2021/05/17 03:18:59;;;;;;;2.77;1.20;;;;;20.80;99008.00;;;;2076690;28;20676;-53
2021/05/17 03:19:59;;;;;;;1.43;1.20;;;;;20.80;99003.00;;;;2053824;28;20331;-53
2021/05/17 03:21:00;;;;;;;1.70;1.20;;;;;20.80;99005.00;;;;2065519;28;20214;-53
2021/05/17 03:22:00;;;;;;;1.63;1.07;;;;;20.80;99005.00;;;;2064547;28;20214;-52
2021/05/17 03:23:01;;;;;;;2.23;1.20;;;;;20.80;99012.00;;;;2070128;28;20226;-52
2021/05/17 03:24:01;;;;;;;1.10;0.93;;;;;20.80;99001.00;;;;2075133;28;20217;-53
2021/05/17 03:25:03;;;;;;;1.07;0.97;;;;;20.80;99011.00;;;;2077051;28;20213;-52
2021/05/17 03:26:04;;;;;;;1.42;1.00;;;;;20.80;99009.00;;;;2062690;28;20987;-53
2021/05/17 03:27:23;;;;;;;1.23;1.13;;;;;20.70;99006.00;;;;2061763;28;20223;-53
2021/05/17 03:28:23;;;;;;;1.38;1.10;;;;;20.80;99008.00;;;;2078271;28;20221;-52
2021/05/17 03:29:24;;;;;;;1.80;1.30;;;;;20.80;99021.00;;;;2078111;28;20214;-53
2021/05/17 03:30:24;;;;;;;1.80;1.03;;;;;20.80;99019.00;;;;2071527;28;20230;-53
2021/05/17 03:31:24;;;;;;;0.93;0.83;;;;;20.80;99017.00;;;;2074759;28;20210;-52
2021/05/17 03:32:26;;;;;;;1.57;1.10;;;;;20.70;99011.00;;;;2074341;28;20225;-52
2021/05/17 03:33:26;;;;;;;1.00;0.80;;;;;20.80;99018.00;;;;2073748;28;20214;-53
2021/05/17 03:34:27;;;;;;;1.50;1.20;;;;;20.80;99009.00;;;;2075102;28;20753;-52
2021/05/17 03:35:27;;;;;;;1.40;1.00;;;;;20.80;99007.00;;;;2076963;28;20214;-53
2021/05/17 03:36:28;;;;;;;1.17;0.90;;;;;20.80;99015.00;;;;2076476;28;20216;-52
2021/05/17 03:37:28;;;;;;;1.00;0.90;;;;;20.80;99010.00;;;;2071908;28;20452;-52
2021/05/17 03:38:29;;;;;;;1.30;0.90;;;;;20.80;99015.00;;;;2070573;28;20342;-52
2021/05/17 03:39:29;;;;;;;1.73;0.87;;;;;20.80;99005.00;;;;2070352;28;20353;-53
2021/05/17 03:40:29;;;;;;;1.63;0.83;;;;;20.80;99006.00;;;;2072116;28;20306;-53
2021/05/17 03:41:30;;;;;;;1.20;0.87;;;;;20.80;99012.00;;;;2075662;28;20725;-53
2021/05/17 03:42:30;;;;;;;2.30;0.73;;;;;20.80;99013.00;;;;2078606;28;20210;-53
2021/05/17 03:43:30;;;;;;;2.43;1.10;;;;;20.80;99018.00;;;;2077605;28;20320;-52
2021/05/17 03:44:31;;;;;;;1.27;0.90;;;;;20.70;99014.00;;;;2070632;28;20214;-52
2021/05/17 03:45:31;;;;;;;1.07;0.80;;;;;20.80;99016.00;;;;2075695;28;20218;-52
2021/05/17 03:46:31;;;;;;;1.33;0.90;;;;;20.80;99014.00;;;;2079111;28;20659;-53
2021/05/17 03:47:32;;;;;;;2.30;1.00;;;;;20.70;99015.00;;;;2073077;28;20210;-53
2021/05/17 03:48:32;;;;;;;0.90;0.80;;;;;20.80;99015.00;;;;2072299;28;20234;-53
2021/05/17 03:49:32;;;;;;;1.90;1.10;;;;;20.70;99018.00;;;;2076445;28;20218;-53
2021/05/17 03:50:33;;;;;;;1.10;0.80;;;;;20.70;99013.00;;;;2073274;28;20285;-52
2021/05/17 03:51:33;;;;;;;2.10;0.93;;;;;20.70;99020.00;;;;2075897;28;20208;-53
2021/05/17 03:52:34;;;;;;;2.20;0.80;;;;;20.70;99014.00;;;;2070386;28;20235;-53
2021/05/17 03:53:34;;;;;;;2.13;1.10;;;;;20.80;99019.00;;;;2070564;28;20221;-53
2021/05/17 03:54:35;;;;;;;2.00;1.00;;;;;20.70;99028.00;;;;2073424;28;20224;-52
2021/05/17 03:55:35;;;;;;;1.57;1.07;;;;;20.70;99015.00;;;;2074630;28;20214;-52
2021/05/17 03:56:36;;;;;;;1.13;0.90;;;;;20.70;99016.00;;;;2072220;28;20214;-53
2021/05/17 03:57:37;;;;;;;1.00;0.87;;;;;20.70;99017.00;;;;2078917;28;20218;-52
2021/05/17 03:58:37;;;;;;;1.10;0.70;;;;;20.70;99019.00;;;;2078881;28;20209;-52
2021/05/17 03:59:40;;;;;;;1.47;1.10;;;;;20.70;99019.00;;;;2078564;28;20236;-53
2021/05/17 04:00:40;;;;;;;1.10;1.00;;;;;20.70;99021.00;;;;2074277;28;20219;-52
2021/05/17 04:01:41;;;;;;;1.83;1.50;;;;;20.70;99020.00;;;;2075264;28;20218;-53
2021/05/17 04:02:43;;;;;;;2.20;1.00;;;;;20.70;99021.00;;;;2076740;28;20306;-53
2021/05/17 04:03:43;;;;;;;1.90;1.20;;;;;20.70;99024.00;;;;2074612;28;20223;-53
2021/05/17 04:05:31;;;;;;;1.40;1.00;;;;;20.70;99018.00;;;;2074524;28;20219;-52
2021/05/17 04:13:18;;;;;;;1.30;0.80;;;;;20.70;99039.00;;;;2074625;28;20218;-52
2021/05/17 04:13:53;;;;;;;1.33;0.90;;;;;20.70;99027.00;;;;2070046;28;20215;-52
2021/05/17 04:14:53;;;;;;;1.87;1.17;;;;;20.70;99027.00;;;;2071214;28;20369;-52
2021/05/17 04:15:54;;;;;;;1.67;0.80;;;;;20.70;99034.00;;;;2071202;28;20214;-53
2021/05/17 04:16:55;;;;;;;1.90;1.15;;;;;20.70;99031.00;;;;2070907;28;20307;-53
2021/05/17 04:17:55;;;;;;;1.10;0.73;;;;;20.70;99026.00;;;;2071243;28;20868;-53
2021/05/17 04:18:55;;;;;;;3.27;0.90;;;;;20.70;99028.00;;;;2076308;28;20271;-52
2021/05/17 04:19:56;;;;;;;2.47;0.80;;;;;20.70;99025.00;;;;2073503;28;20211;-53
2021/05/17 04:20:56;;;;;;;1.37;0.97;;;;;20.70;99023.00;;;;2076832;28;20202;-52
2021/05/17 04:21:57;;;;;;;1.40;0.80;;;;;20.70;99026.00;;;;2069248;28;20301;-52
2021/05/17 04:22:57;;;;;;;1.00;0.90;;;;;20.70;99032.00;;;;2074653;28;20206;-53
2021/05/17 04:23:57;;;;;;;1.30;0.83;;;;;20.70;99030.00;;;;2073728;28;20206;-53
2021/05/17 04:24:58;;;;;;;2.17;1.00;;;;;20.70;99025.00;;;;2079051;28;20269;-52
2021/05/17 04:25:58;;;;;;;1.00;0.77;;;;;20.70;99029.00;;;;2071528;28;20225;-53
2021/05/17 04:26:59;;;;;;;1.10;0.60;;;;;20.70;99026.00;;;;2074065;28;20260;-53
2021/05/17 04:27:59;;;;;;;1.02;0.88;;;;;20.70;99026.00;;;;2074899;28;20199;-53
2021/05/17 04:29:00;;;;;;;2.10;1.00;;;;;20.70;99032.00;;;;2077481;28;20238;-53
2021/05/17 04:30:00;;;;;;;1.40;1.13;;;;;20.70;99036.00;;;;2070537;28;20225;-52
2021/05/17 04:31:01;;;;;;;1.33;1.00;;;;;20.70;99034.00;;;;2075753;28;20730;-53
2021/05/17 04:32:01;;;;;;;1.27;0.87;;;;;20.70;99044.00;;;;2075771;28;20213;-53
2021/05/17 04:33:01;;;;;;;1.33;0.90;;;;;20.70;99036.00;;;;2071876;28;20305;-53
2021/05/17 04:34:02;;;;;;;1.17;0.80;;;;;20.70;99034.00;;;;2076440;28;20217;-53
2021/05/17 04:35:03;;;;;;;1.00;0.70;;;;;20.70;99035.00;;;;2074517;28;20240;-53
2021/05/17 04:36:04;;;;;;;1.40;0.80;;;;;20.70;99038.00;;;;2075070;28;20221;-53
2021/05/17 04:37:04;;;;;;;0.90;0.60;;;;;20.70;99023.00;;;;2069903;28;20578;-53
2021/05/17 04:38:04;;;;;;;1.70;0.90;;;;;20.70;99044.00;;;;2070480;28;20207;-53
2021/05/17 04:39:05;;;;;;;1.10;0.80;;;;;20.70;99034.00;;;;2074315;28;20214;-52
2021/05/17 04:40:06;;;;;;;2.97;0.77;;;;;20.70;99033.00;;;;2074930;28;20252;-53
2021/05/17 04:41:06;;;;;;;0.83;0.60;;;;;20.70;99036.00;;;;2078534;28;20236;-52
2021/05/17 04:42:07;;;;;;;0.97;0.60;;;;;20.70;99044.00;;;;2073901;28;20461;-52
2021/05/17 04:43:07;;;;;;;1.10;0.80;;;;;20.70;99038.00;;;;2075460;28;20221;-53
2021/05/17 04:44:07;;;;;;;1.70;0.90;;;;;20.70;99030.00;;;;2078805;28;20625;-52
2021/05/17 04:45:08;;;;;;;1.30;0.90;;;;;20.70;99036.00;;;;2077679;28;20290;-52
2021/05/17 04:46:08;;;;;;;1.07;0.80;;;;;20.70;99042.00;;;;2074873;28;20253;-53
2021/05/17 04:47:09;;;;;;;1.90;1.10;;;;;20.70;99033.00;;;;2076467;28;20570;-53
2021/05/17 04:48:09;;;;;;;0.90;0.60;;;;;20.70;99047.00;;;;2081766;28;20209;-53
2021/05/17 04:49:10;;;;;;;1.40;0.80;;;;;20.70;99039.00;;;;2077724;28;20304;-53
2021/05/17 04:50:10;;;;;;;2.20;0.70;;;;;20.70;99043.00;;;;2081875;28;20208;-53
2021/05/17 04:51:11;;;;;;;1.10;0.70;;;;;20.70;99044.00;;;;2077246;28;20234;-53
2021/05/17 04:52:11;;;;;;;1.03;0.70;;;;;20.70;98997.00;;;;2071986;28;20764;-53
2021/05/17 04:53:11;;;;;;;0.80;0.77;;;;;20.70;99049.00;;;;2080126;28;20578;-52
2021/05/17 04:54:12;;;;;;;1.00;0.70;;;;;20.70;99048.00;;;;2078313;28;20615;-53
2021/05/17 04:55:12;;;;;;;1.30;0.70;;;;;20.70;99048.00;;;;2075871;28;20203;-53
2021/05/17 04:56:13;;;;;;;1.07;0.70;;;;;20.70;99048.00;;;;2075823;28;20226;-53
2021/05/17 04:57:13;;;;;;;1.07;0.77;;;;;20.70;99047.00;;;;2078254;28;20298;-53
2021/05/17 04:58:13;;;;;;;3.00;1.20;;;;;20.70;99034.00;;;;2081346;28;20232;-53
2021/05/17 04:59:14;;;;;;;1.73;0.80;;;;;20.70;99042.00;;;;2081178;28;20275;-53
2021/05/17 05:00:15;;;;;;;1.17;0.80;;;;;20.70;99040.00;;;;2077284;28;20563;-53
2021/05/17 05:01:15;;;;;;;1.53;0.90;;;;;20.70;99040.00;;;;2077028;28;20622;-53
2021/05/17 05:02:15;;;;;;;1.20;0.80;;;;;20.70;99050.00;;;;2074363;28;20460;-52
2021/05/17 05:03:16;;;;;;;1.00;0.87;;;;;20.70;99037.00;;;;2072789;28;20219;-52
2021/05/17 05:04:16;;;;;;;1.20;0.90;;;;;20.70;99039.00;;;;2073077;28;20580;-53
2021/05/17 05:05:16;;;;;;;1.30;0.67;;;;;20.60;99048.00;;;;2074934;28;20687;-53
2021/05/17 05:06:17;;;;;;;0.80;0.70;;;;;20.70;99044.00;;;;2081599;28;20214;-52
2021/05/17 05:07:19;;;;;;;1.50;0.73;;;;;20.70;99042.00;;;;2076273;28;20215;-52
2021/05/17 05:08:19;;;;;;;0.80;0.50;;;;;20.70;99040.00;;;;2075055;28;20299;-52
2021/05/17 05:09:19;;;;;;;1.20;0.70;;;;;20.60;99049.00;;;;2079972;28;20405;-53
2021/05/17 05:10:20;;;;;;;1.00;0.73;;;;;20.60;99054.00;;;;2076797;28;20218;-53
2021/05/17 05:11:20;;;;;;;1.07;0.73;;;;;20.60;99048.00;;;;2081222;28;20213;-53
2021/05/17 05:12:21;;;;;;;1.73;1.07;;;;;20.60;99050.00;;;;2075215;28;20214;-53
2021/05/17 05:13:21;;;;;;;0.90;0.80;;;;;20.70;99039.00;;;;2081188;28;20308;-53
2021/05/17 05:14:21;;;;;;;1.83;0.90;;;;;20.60;99041.00;;;;2077135;28;20222;-53
2021/05/17 05:15:22;;;;;;;1.20;0.70;;;;;20.60;99057.00;;;;2080555;28;20209;-53